Česky Dansk Deutsch English Español Suomi Français Magyar Italiano Nederlands norsk Polski Português svenska Türkçe

 

Het Weer

Maiduguri (Nigeria)

11:00, 2 mei 2013 (GMT)

NWNNE
WE
SWSSE
Home            
Maiduguri Diffa Maine-Soroa Maroua-Salak Ndjamena Bol-Berim Garoua Yola Pala Goure Bokoro Moundou Zinder Kano Ngaoundere Jos Banyo Zaria Meiganga Kaduna Sarh Makurdi Maradi

Om een weerknop op uw website of weblog te plaatsen, copieer onderstaande code en plak die in uw pagina. In het eerste vakje staat HTML-code, in het tweede vakje UBB-code.


Add to Google

Details

Wind speed:4 bf, 15 kn, 7.7 m/s, 17.3 miles/h, 27.8 km/h
Wind direction:WNW, 300°
Visibility:Greater than 10000 m, 10 km, 32800 ft, 6.2 miles
Clouds:CAVOC
Temperature:38°C, 100°F
Gefühlte Temperatur:40°C, 104°F
Dew-point:19°C, 66°F
Atmospheric pressure:1006 hPa, 754.6 mmHg, 29.71 inHg, 0.993 atm
Relative humidity:33.2 %
METAR:DNMA 021100Z 30015KT CAVOK 38/19 Q1006

Snelkoppelingen

Actuele weersinformatie van de hele wereld. Voeg locaties toe met het plus (+) symbool. Deze snelkoppelingen kunnen worden toegevoegd aan Google.

Lid van de Technetium groep

website free tracking
StatCounter NetStat W3C Validator

24-04-2018 12:22:55
astro.technetium.be money.technetium.be phote.technetium.be tafeltennistafel.technetium.be www.ligfiets.net